sensor_id;sensor_type;location;lat;lon;timestamp;pressure;altitude;pressure_sealevel;temperature
24740;BMP280;45234;48.148;17.128;2023-08-30T00:01:24;98849.31;;;16.55
24740;BMP280;45234;48.148;17.128;2023-08-30T00:03:51;98859.78;;;16.55
24740;BMP280;45234;48.148;17.128;2023-08-30T00:06:18;98849.84;;;16.52
24740;BMP280;45234;48.148;17.128;2023-08-30T00:08:45;98851.16;;;16.49
24740;BMP280;45234;48.148;17.128;2023-08-30T00:11:13;98845.13;;;16.49
24740;BMP280;45234;48.148;17.128;2023-08-30T00:13:40;98844.88;;;16.50
24740;BMP280;45234;48.148;17.128;2023-08-30T00:16:09;98837.03;;;16.50
24740;BMP280;45234;48.148;17.128;2023-08-30T00:18:36;98821.88;;;16.47
24740;BMP280;45234;48.148;17.128;2023-08-30T00:21:04;98839.66;;;16.45
24740;BMP280;45234;48.148;17.128;2023-08-30T00:23:33;98841.72;;;16.43
24740;BMP280;45234;48.148;17.128;2023-08-30T00:26:00;98866.84;;;16.44
24740;BMP280;45234;48.148;17.128;2023-08-30T00:28:27;98880.44;;;16.41
24740;BMP280;45234;48.148;17.128;2023-08-30T00:30:55;98896.16;;;16.36
24740;BMP280;45234;48.148;17.128;2023-08-30T00:33:23;98889.59;;;16.39
24740;BMP280;45234;48.148;17.128;2023-08-30T00:36:00;98905.25;;;16.34
24740;BMP280;45234;48.148;17.128;2023-08-30T00:38:28;98895.09;;;16.37
24740;BMP280;45234;48.148;17.128;2023-08-30T00:40:55;98910.00;;;16.42
24740;BMP280;45234;48.148;17.128;2023-08-30T00:43:22;98904.50;;;16.43
24740;BMP280;45234;48.148;17.128;2023-08-30T00:45:49;98908.44;;;16.51
24740;BMP280;45234;48.148;17.128;2023-08-30T00:48:20;98902.97;;;16.47
24740;BMP280;45234;48.148;17.128;2023-08-30T00:50:48;98900.59;;;16.51
24740;BMP280;45234;48.148;17.128;2023-08-30T00:53:15;98908.97;;;16.53
24740;BMP280;45234;48.148;17.128;2023-08-30T00:55:45;98916.28;;;16.51
24740;BMP280;45234;48.148;17.128;2023-08-30T00:58:12;98904.53;;;16.53
24740;BMP280;45234;48.148;17.128;2023-08-30T01:00:40;98901.63;;;16.55
24740;BMP280;45234;48.148;17.128;2023-08-30T01:03:11;98889.91;;;16.57
24740;BMP280;45234;48.148;17.128;2023-08-30T01:05:38;98898.00;;;16.56
24740;BMP280;45234;48.148;17.128;2023-08-30T01:08:05;98897.19;;;16.55
24740;BMP280;45234;48.148;17.128;2023-08-30T01:11:02;98899.25;;;16.38
24740;BMP280;45234;48.148;17.128;2023-08-30T01:13:32;98903.19;;;16.41
24740;BMP280;45234;48.148;17.128;2023-08-30T01:16:00;98900.06;;;16.39
24740;BMP280;45234;48.148;17.128;2023-08-30T01:18:31;98904.25;;;16.40
24740;BMP280;45234;48.148;17.128;2023-08-30T01:21:02;98912.63;;;16.37
24740;BMP280;45234;48.148;17.128;2023-08-30T01:23:47;98919.41;;;16.33
24740;BMP280;45234;48.148;17.128;2023-08-30T01:29:03;98928.81;;;16.39
24740;BMP280;45234;48.148;17.128;2023-08-30T01:31:33;98934.59;;;16.46
24740;BMP280;45234;48.148;17.128;2023-08-30T01:34:02;98938.00;;;16.51
24740;BMP280;45234;48.148;17.128;2023-08-30T01:36:30;98930.69;;;16.53
24740;BMP280;45234;48.148;17.128;2023-08-30T01:38:59;98930.72;;;16.58
24740;BMP280;45234;48.148;17.128;2023-08-30T01:41:27;98925.47;;;16.64
24740;BMP280;45234;48.148;17.128;2023-08-30T01:43:54;98938.56;;;16.69
24740;BMP280;45234;48.148;17.128;2023-08-30T01:46:23;98931.75;;;16.73
24740;BMP280;45234;48.148;17.128;2023-08-30T01:48:51;98924.94;;;16.77
24740;BMP280;45234;48.148;17.128;2023-08-30T01:51:19;98911.88;;;16.77
24740;BMP280;45234;48.148;17.128;2023-08-30T01:53:46;98924.94;;;16.77
24740;BMP280;45234;48.148;17.128;2023-08-30T01:56:14;98925.75;;;16.77
24740;BMP280;45234;48.148;17.128;2023-08-30T01:58:41;98921.28;;;16.78
24740;BMP280;45234;48.148;17.128;2023-08-30T02:01:08;98916.06;;;16.78
24740;BMP280;45234;48.148;17.128;2023-08-30T02:03:35;98910.81;;;16.78
24740;BMP280;45234;48.148;17.128;2023-08-30T02:06:14;98918.41;;;16.69
24740;BMP280;45234;48.148;17.128;2023-08-30T02:08:55;98919.94;;;16.65
24740;BMP280;45234;48.148;17.128;2023-08-30T02:11:27;98907.16;;;16.69
24740;BMP280;45234;48.148;17.128;2023-08-30T02:13:57;98911.84;;;16.72
24740;BMP280;45234;48.148;17.128;2023-08-30T02:16:27;98915.50;;;16.71
24740;BMP280;45234;48.148;17.128;2023-08-30T02:18:55;98913.44;;;16.73
24740;BMP280;45234;48.148;17.128;2023-08-30T02:21:23;98916.31;;;16.71
24740;BMP280;45234;48.148;17.128;2023-08-30T02:23:51;98912.66;;;16.72
24740;BMP280;45234;48.148;17.128;2023-08-30T02:26:20;98909.25;;;16.67
24740;BMP280;45234;48.148;17.128;2023-08-30T02:28:48;98909.25;;;16.72
24740;BMP280;45234;48.148;17.128;2023-08-30T02:31:15;98899.00;;;16.75
24740;BMP280;45234;48.148;17.128;2023-08-30T02:33:45;98897.75;;;16.78
24740;BMP280;45234;48.148;17.128;2023-08-30T02:36:12;98897.19;;;16.76
24740;BMP280;45234;48.148;17.128;2023-08-30T02:38:39;98907.94;;;16.74
24740;BMP280;45234;48.148;17.128;2023-08-30T02:41:06;98902.97;;;16.73
24740;BMP280;45234;48.148;17.128;2023-08-30T02:43:33;98884.66;;;16.73
24740;BMP280;45234;48.148;17.128;2023-08-30T02:46:00;98906.63;;;16.67
24740;BMP280;45234;48.148;17.128;2023-08-30T02:48:28;98900.88;;;16.70
24740;BMP280;45234;48.148;17.128;2023-08-30T02:50:55;98901.38;;;16.72
24740;BMP280;45234;48.148;17.128;2023-08-30T02:53:22;98886.75;;;16.71
24740;BMP280;45234;48.148;17.128;2023-08-30T02:55:50;98900.59;;;16.71
24740;BMP280;45234;48.148;17.128;2023-08-30T02:58:17;98892.50;;;16.73
24740;BMP280;45234;48.148;17.128;2023-08-30T03:00:44;98901.41;;;16.77
24740;BMP280;45234;48.148;17.128;2023-08-30T03:03:11;98899.31;;;16.84
24740;BMP280;45234;48.148;17.128;2023-08-30T03:05:38;98901.91;;;16.84
24740;BMP280;45234;48.148;17.128;2023-08-30T03:08:06;98910.03;;;16.87
24740;BMP280;45234;48.148;17.128;2023-08-30T03:10:34;98903.47;;;16.80
24740;BMP280;45234;48.148;17.128;2023-08-30T03:13:01;98906.63;;;16.82
24740;BMP280;45234;48.148;17.128;2023-08-30T03:15:31;98904.25;;;16.75
24740;BMP280;45234;48.148;17.128;2023-08-30T03:18:00;98897.97;;;16.81
24740;BMP280;45234;48.148;17.128;2023-08-30T03:20:28;98903.75;;;16.88
24740;BMP280;45234;48.148;17.128;2023-08-30T03:22:59;98912.41;;;16.89
24740;BMP280;45234;48.148;17.128;2023-08-30T03:25:29;98910.81;;;16.88
24740;BMP280;45234;48.148;17.128;2023-08-30T03:27:57;98908.97;;;16.93
24740;BMP280;45234;48.148;17.128;2023-08-30T03:30:24;98914.44;;;16.97
24740;BMP280;45234;48.148;17.128;2023-08-30T03:32:52;98907.16;;;16.99
24740;BMP280;45234;48.148;17.128;2023-08-30T03:35:20;98914.44;;;16.97
24740;BMP280;45234;48.148;17.128;2023-08-30T03:37:49;98917.63;;;16.99
24740;BMP280;45234;48.148;17.128;2023-08-30T03:40:16;98926.25;;;17.05
24740;BMP280;45234;48.148;17.128;2023-08-30T03:42:44;98928.34;;;17.03
24740;BMP280;45234;48.148;17.128;2023-08-30T03:45:13;98926.53;;;16.98
24740;BMP280;45234;48.148;17.128;2023-08-30T03:47:40;98918.91;;;17.02
24740;BMP280;45234;48.148;17.128;2023-08-30T03:50:08;98912.09;;;17.01
24740;BMP280;45234;48.148;17.128;2023-08-30T03:52:35;98905.03;;;17.01
24740;BMP280;45234;48.148;17.128;2023-08-30T03:55:03;98926.75;;;17.02
24740;BMP280;45234;48.148;17.128;2023-08-30T03:57:30;98919.19;;;17.00
24740;BMP280;45234;48.148;17.128;2023-08-30T03:59:57;98922.56;;;17.01
24740;BMP280;45234;48.148;17.128;2023-08-30T04:02:24;98927.53;;;17.02
24740;BMP280;45234;48.148;17.128;2023-08-30T04:04:51;98918.41;;;17.00
24740;BMP280;45234;48.148;17.128;2023-08-30T04:07:17;98932.53;;;17.04
24740;BMP280;45234;48.148;17.128;2023-08-30T04:09:44;98926.25;;;17.00
24740;BMP280;45234;48.148;17.128;2023-08-30T04:12:11;98925.47;;;17.04
24740;BMP280;45234;48.148;17.128;2023-08-30T04:14:38;98922.31;;;17.02
24740;BMP280;45234;48.148;17.128;2023-08-30T04:17:05;98931.75;;;17.03
24740;BMP280;45234;48.148;17.128;2023-08-30T04:19:33;98936.72;;;17.00
24740;BMP280;45234;48.148;17.128;2023-08-30T04:22:00;98934.91;;;17.00
24740;BMP280;45234;48.148;17.128;2023-08-30T04:24:27;98944.59;;;17.00
24740;BMP280;45234;48.148;17.128;2023-08-30T04:26:54;98950.31;;;16.96
24740;BMP280;45234;48.148;17.128;2023-08-30T04:29:21;98950.84;;;16.93
24740;BMP280;45234;48.148;17.128;2023-08-30T04:31:49;98958.97;;;16.92
24740;BMP280;45234;48.148;17.128;2023-08-30T04:34:16;98957.13;;;16.97
24740;BMP280;45234;48.148;17.128;2023-08-30T04:36:43;98961.06;;;17.00
24740;BMP280;45234;48.148;17.128;2023-08-30T04:39:13;98964.97;;;17.03
24740;BMP280;45234;48.148;17.128;2023-08-30T04:41:41;98956.09;;;17.04
24740;BMP280;45234;48.148;17.128;2023-08-30T04:44:10;98962.59;;;16.96
24740;BMP280;45234;48.148;17.128;2023-08-30T04:46:36;98957.91;;;16.93
24740;BMP280;45234;48.148;17.128;2023-08-30T04:49:04;98968.94;;;17.00
24740;BMP280;45234;48.148;17.128;2023-08-30T04:51:32;98964.97;;;17.08
24740;BMP280;45234;48.148;17.128;2023-08-30T04:54:00;98966.03;;;17.12
24740;BMP280;45234;48.148;17.128;2023-08-30T04:56:27;98960.28;;;17.20
24740;BMP280;45234;48.148;17.128;2023-08-30T04:58:54;98952.13;;;17.21
24740;BMP280;45234;48.148;17.128;2023-08-30T05:01:24;98949.25;;;17.33
24740;BMP280;45234;48.148;17.128;2023-08-30T05:03:54;98956.28;;;17.38
24740;BMP280;45234;48.148;17.128;2023-08-30T05:06:22;98964.16;;;17.38
24740;BMP280;45234;48.148;17.128;2023-08-30T05:08:49;98958.38;;;17.41
24740;BMP280;45234;48.148;17.128;2023-08-30T05:11:16;98959.94;;;17.47
24740;BMP280;45234;48.148;17.128;2023-08-30T05:13:46;98964.66;;;17.50
24740;BMP280;45234;48.148;17.128;2023-08-30T05:16:13;98966.19;;;17.56
24740;BMP280;45234;48.148;17.128;2023-08-30T05:18:40;98964.38;;;17.56
24740;BMP280;45234;48.148;17.128;2023-08-30T05:21:11;98963.06;;;17.64
24740;BMP280;45234;48.148;17.128;2023-08-30T05:23:38;98949.94;;;17.74
24740;BMP280;45234;48.148;17.128;2023-08-30T05:26:12;98949.38;;;17.77
24740;BMP280;45234;48.148;17.128;2023-08-30T05:28:39;98951.91;;;17.92
24740;BMP280;45234;48.148;17.128;2023-08-30T05:31:08;98925.66;;;18.02
24740;BMP280;45234;48.148;17.128;2023-08-30T05:33:59;98948.19;;;18.03
24740;BMP280;45234;48.148;17.128;2023-08-30T05:36:45;98946.88;;;18.06
24740;BMP280;45234;48.148;17.128;2023-08-30T05:39:26;98946.50;;;18.23
24740;BMP280;45234;48.148;17.128;2023-08-30T05:41:55;98953.59;;;18.27
24740;BMP280;45234;48.148;17.128;2023-08-30T05:44:23;98961.75;;;18.26
24740;BMP280;45234;48.148;17.128;2023-08-30T05:46:50;98951.75;;;18.23
24740;BMP280;45234;48.148;17.128;2023-08-30T05:49:18;98958.06;;;18.27
24740;BMP280;45234;48.148;17.128;2023-08-30T05:51:45;98956.72;;;18.29
24740;BMP280;45234;48.148;17.128;2023-08-30T05:54:12;98959.56;;;18.33
24740;BMP280;45234;48.148;17.128;2023-08-30T05:56:40;98962.47;;;18.31
24740;BMP280;45234;48.148;17.128;2023-08-30T05:59:06;98953.25;;;18.34
24740;BMP280;45234;48.148;17.128;2023-08-30T06:01:34;98958.72;;;18.76
24740;BMP280;45234;48.148;17.128;2023-08-30T06:04:02;98961.44;;;19.72
24740;BMP280;45234;48.148;17.128;2023-08-30T06:06:31;98971.47;;;20.77
24740;BMP280;45234;48.148;17.128;2023-08-30T06:08:58;98968.13;;;21.94
24740;BMP280;45234;48.148;17.128;2023-08-30T06:11:26;98964.47;;;22.71
24740;BMP280;45234;48.148;17.128;2023-08-30T06:13:53;98959.88;;;23.33
24740;BMP280;45234;48.148;17.128;2023-08-30T06:16:20;98970.50;;;23.85
24740;BMP280;45234;48.148;17.128;2023-08-30T06:18:47;98972.63;;;24.34
24740;BMP280;45234;48.148;17.128;2023-08-30T06:21:14;98976.84;;;24.44
24740;BMP280;45234;48.148;17.128;2023-08-30T06:23:42;98976.72;;;24.78
24740;BMP280;45234;48.148;17.128;2023-08-30T06:26:09;98980.88;;;25.26
24740;BMP280;45234;48.148;17.128;2023-08-30T06:28:36;98974.44;;;24.60
24740;BMP280;45234;48.148;17.128;2023-08-30T06:31:04;98996.13;;;24.62
24740;BMP280;45234;48.148;17.128;2023-08-30T06:33:37;98995.44;;;23.84
24740;BMP280;45234;48.148;17.128;2023-08-30T06:36:06;98989.44;;;23.35
24740;BMP280;45234;48.148;17.128;2023-08-30T06:38:33;98990.06;;;22.93
24740;BMP280;45234;48.148;17.128;2023-08-30T06:41:01;99001.47;;;23.02
24740;BMP280;45234;48.148;17.128;2023-08-30T06:43:28;99004.25;;;23.53
24740;BMP280;45234;48.148;17.128;2023-08-30T06:45:58;99007.56;;;23.67
24740;BMP280;45234;48.148;17.128;2023-08-30T06:48:26;99003.28;;;23.41
24740;BMP280;45234;48.148;17.128;2023-08-30T06:50:56;98998.31;;;22.91
24740;BMP280;45234;48.148;17.128;2023-08-30T06:53:23;99001.22;;;22.90
24740;BMP280;45234;48.148;17.128;2023-08-30T06:55:59;99007.03;;;22.47
24740;BMP280;45234;48.148;17.128;2023-08-30T06:58:28;99009.66;;;22.47
24740;BMP280;45234;48.148;17.128;2023-08-30T07:00:57;98998.78;;;22.18
24740;BMP280;45234;48.148;17.128;2023-08-30T07:03:26;99013.28;;;22.51
24740;BMP280;45234;48.148;17.128;2023-08-30T07:05:54;99002.75;;;22.82
24740;BMP280;45234;48.148;17.128;2023-08-30T07:08:21;99011.75;;;22.81
24740;BMP280;45234;48.148;17.128;2023-08-30T07:10:48;99003.41;;;23.27
24740;BMP280;45234;48.148;17.128;2023-08-30T07:13:16;99016.56;;;23.66
24740;BMP280;45234;48.148;17.128;2023-08-30T07:15:43;99006.91;;;23.62
24740;BMP280;45234;48.148;17.128;2023-08-30T07:18:11;99015.84;;;23.26
24740;BMP280;45234;48.148;17.128;2023-08-30T07:20:41;98998.19;;;23.05
24740;BMP280;45234;48.148;17.128;2023-08-30T07:23:08;99002.91;;;22.85
24740;BMP280;45234;48.148;17.128;2023-08-30T07:25:38;99011.72;;;22.28
24740;BMP280;45234;48.148;17.128;2023-08-30T07:28:05;99016.41;;;21.81
24740;BMP280;45234;48.148;17.128;2023-08-30T07:30:33;99014.09;;;21.52
24740;BMP280;45234;48.148;17.128;2023-08-30T07:33:02;99012.56;;;21.51
24740;BMP280;45234;48.148;17.128;2023-08-30T07:35:31;99014.47;;;21.73
24740;BMP280;45234;48.148;17.128;2023-08-30T07:37:59;99015.28;;;21.60
24740;BMP280;45234;48.148;17.128;2023-08-30T07:40:26;99016.28;;;21.64
24740;BMP280;45234;48.148;17.128;2023-08-30T07:42:55;99023.41;;;22.13
24740;BMP280;45234;48.148;17.128;2023-08-30T07:45:25;99020.13;;;22.08
24740;BMP280;45234;48.148;17.128;2023-08-30T07:47:52;99016.47;;;22.39
24740;BMP280;45234;48.148;17.128;2023-08-30T07:50:19;99027.78;;;22.84
24740;BMP280;45234;48.148;17.128;2023-08-30T07:52:46;99030.44;;;22.62
24740;BMP280;45234;48.148;17.128;2023-08-30T07:55:14;99036.34;;;22.59
24740;BMP280;45234;48.148;17.128;2023-08-30T07:57:42;99035.00;;;22.48
24740;BMP280;45234;48.148;17.128;2023-08-30T08:00:11;99032.59;;;22.16
24740;BMP280;45234;48.148;17.128;2023-08-30T08:02:38;99042.59;;;22.41
24740;BMP280;45234;48.148;17.128;2023-08-30T08:05:06;99043.41;;;22.95
24740;BMP280;45234;48.148;17.128;2023-08-30T08:07:36;99041.34;;;23.31
24740;BMP280;45234;48.148;17.128;2023-08-30T08:10:03;99037.03;;;23.35
24740;BMP280;45234;48.148;17.128;2023-08-30T08:12:33;99041.75;;;23.47
24740;BMP280;45234;48.148;17.128;2023-08-30T08:15:00;99042.13;;;23.23
24740;BMP280;45234;48.148;17.128;2023-08-30T08:17:28;99061.31;;;22.75
24740;BMP280;45234;48.148;17.128;2023-08-30T08:19:56;99055.53;;;22.29
24740;BMP280;45234;48.148;17.128;2023-08-30T08:22:23;99053.44;;;22.03
24740;BMP280;45234;48.148;17.128;2023-08-30T08:24:50;99054.34;;;21.99
24740;BMP280;45234;48.148;17.128;2023-08-30T08:27:18;99053.56;;;21.71
24740;BMP280;45234;48.148;17.128;2023-08-30T08:29:49;99057.75;;;21.45
24740;BMP280;45234;48.148;17.128;2023-08-30T08:32:16;99057.66;;;21.50
24740;BMP280;45234;48.148;17.128;2023-08-30T08:34:43;99068.41;;;21.40
24740;BMP280;45234;48.148;17.128;2023-08-30T08:37:10;99062.44;;;21.34
24740;BMP280;45234;48.148;17.128;2023-08-30T08:39:38;99061.44;;;21.30
24740;BMP280;45234;48.148;17.128;2023-08-30T08:42:06;99070.38;;;21.48
24740;BMP280;45234;48.148;17.128;2023-08-30T08:44:33;99078.75;;;21.50
24740;BMP280;45234;48.148;17.128;2023-08-30T08:47:01;99081.59;;;21.53
24740;BMP280;45234;48.148;17.128;2023-08-30T08:49:30;99075.50;;;21.53
24740;BMP280;45234;48.148;17.128;2023-08-30T08:51:58;99076.69;;;21.60
24740;BMP280;45234;48.148;17.128;2023-08-30T08:54:26;99089.13;;;21.60
24740;BMP280;45234;48.148;17.128;2023-08-30T08:56:53;99084.13;;;21.45
24740;BMP280;45234;48.148;17.128;2023-08-30T08:59:21;99082.63;;;21.25
24740;BMP280;45234;48.148;17.128;2023-08-30T09:01:49;99085.91;;;21.17
24740;BMP280;45234;48.148;17.128;2023-08-30T09:04:17;99088.09;;;21.15
24740;BMP280;45234;48.148;17.128;2023-08-30T09:06:45;99079.81;;;21.21
24740;BMP280;45234;48.148;17.128;2023-08-30T09:09:14;99092.38;;;21.24
24740;BMP280;45234;48.148;17.128;2023-08-30T09:11:41;99090.72;;;21.29
24740;BMP280;45234;48.148;17.128;2023-08-30T09:14:11;99081.19;;;21.33
24740;BMP280;45234;48.148;17.128;2023-08-30T09:16:38;99087.34;;;21.28
24740;BMP280;45234;48.148;17.128;2023-08-30T09:19:05;99100.63;;;21.50
24740;BMP280;45234;48.148;17.128;2023-08-30T09:21:37;99093.31;;;21.61
24740;BMP280;45234;48.148;17.128;2023-08-30T09:24:07;99106.50;;;21.61
24740;BMP280;45234;48.148;17.128;2023-08-30T09:26:35;99097.31;;;21.58
24740;BMP280;45234;48.148;17.128;2023-08-30T09:29:05;99101.72;;;21.63
24740;BMP280;45234;48.148;17.128;2023-08-30T09:31:35;99098.47;;;21.93
24740;BMP280;45234;48.148;17.128;2023-08-30T09:34:07;99109.69;;;22.26
24740;BMP280;45234;48.148;17.128;2023-08-30T09:36:35;99101.63;;;22.67
24740;BMP280;45234;48.148;17.128;2023-08-30T09:39:12;99103.22;;;22.68
24740;BMP280;45234;48.148;17.128;2023-08-30T09:41:47;99112.19;;;22.90
24740;BMP280;45234;48.148;17.128;2023-08-30T09:44:19;99105.59;;;23.01
24740;BMP280;45234;48.148;17.128;2023-08-30T09:49:20;99089.03;;;22.86
24740;BMP280;45234;48.148;17.128;2023-08-30T09:51:49;99082.31;;;23.03
24740;BMP280;45234;48.148;17.128;2023-08-30T09:54:18;99083.00;;;23.17
24740;BMP280;45234;48.148;17.128;2023-08-30T09:57:05;99088.16;;;23.31
24740;BMP280;45234;48.148;17.128;2023-08-30T09:59:33;99084.00;;;23.38
24740;BMP280;45234;48.148;17.128;2023-08-30T10:02:00;99081.56;;;23.50
24740;BMP280;45234;48.148;17.128;2023-08-30T10:04:28;99080.66;;;23.63
24740;BMP280;45234;48.148;17.128;2023-08-30T10:06:57;99088.63;;;23.72
24740;BMP280;45234;48.148;17.128;2023-08-30T10:09:25;99084.56;;;23.57
24740;BMP280;45234;48.148;17.128;2023-08-30T10:11:52;99085.34;;;23.66
24740;BMP280;45234;48.148;17.128;2023-08-30T10:14:20;99084.88;;;23.64
24740;BMP280;45234;48.148;17.128;2023-08-30T10:16:48;99089.16;;;23.35
24740;BMP280;45234;48.148;17.128;2023-08-30T10:19:28;99088.28;;;23.17
24740;BMP280;45234;48.148;17.128;2023-08-30T10:22:06;99092.09;;;23.11
24740;BMP280;45234;48.148;17.128;2023-08-30T10:25:02;99092.00;;;23.47
24740;BMP280;45234;48.148;17.128;2023-08-30T10:27:41;99100.09;;;23.59
24740;BMP280;45234;48.148;17.128;2023-08-30T10:30:10;99104.22;;;23.65
24740;BMP280;45234;48.148;17.128;2023-08-30T10:32:40;99102.78;;;23.67
24740;BMP280;45234;48.148;17.128;2023-08-30T10:35:10;99103.28;;;23.69
24740;BMP280;45234;48.148;17.128;2023-08-30T10:37:37;99100.97;;;23.77
24740;BMP280;45234;48.148;17.128;2023-08-30T10:40:04;99103.00;;;23.40
24740;BMP280;45234;48.148;17.128;2023-08-30T10:42:32;99102.66;;;23.33
24740;BMP280;45234;48.148;17.128;2023-08-30T10:45:06;99109.66;;;23.29
24740;BMP280;45234;48.148;17.128;2023-08-30T10:47:40;99114.31;;;23.01
24740;BMP280;45234;48.148;17.128;2023-08-30T10:50:10;99116.69;;;23.11
24740;BMP280;45234;48.148;17.128;2023-08-30T10:52:38;99107.94;;;23.33
24740;BMP280;45234;48.148;17.128;2023-08-30T10:55:13;99111.75;;;23.49
24740;BMP280;45234;48.148;17.128;2023-08-30T10:57:45;99107.69;;;23.43
24740;BMP280;45234;48.148;17.128;2023-08-30T11:00:19;99107.34;;;23.36
24740;BMP280;45234;48.148;17.128;2023-08-30T11:02:49;99095.03;;;23.32
24740;BMP280;45234;48.148;17.128;2023-08-30T11:05:18;99096.38;;;23.20
24740;BMP280;45234;48.148;17.128;2023-08-30T11:07:46;99104.25;;;23.03
24740;BMP280;45234;48.148;17.128;2023-08-30T11:10:15;99104.53;;;22.79
24740;BMP280;45234;48.148;17.128;2023-08-30T11:12:43;99103.69;;;22.70
24740;BMP280;45234;48.148;17.128;2023-08-30T11:15:11;99098.81;;;22.86
24740;BMP280;45234;48.148;17.128;2023-08-30T11:17:44;99107.19;;;23.02
24740;BMP280;45234;48.148;17.128;2023-08-30T11:20:18;99098.56;;;22.96
24740;BMP280;45234;48.148;17.128;2023-08-30T11:22:48;99098.91;;;22.72
24740;BMP280;45234;48.148;17.128;2023-08-30T11:25:16;99099.25;;;22.79
24740;BMP280;45234;48.148;17.128;2023-08-30T11:27:45;99093.59;;;22.95
24740;BMP280;45234;48.148;17.128;2023-08-30T11:30:13;99099.97;;;22.94
24740;BMP280;45234;48.148;17.128;2023-08-30T11:32:42;99104.63;;;22.97
24740;BMP280;45234;48.148;17.128;2023-08-30T11:35:12;99108.22;;;23.01
24740;BMP280;45234;48.148;17.128;2023-08-30T11:37:41;99103.25;;;22.99
24740;BMP280;45234;48.148;17.128;2023-08-30T11:40:11;99106.66;;;23.00
24740;BMP280;45234;48.148;17.128;2023-08-30T11:42:38;99107.34;;;23.36
24740;BMP280;45234;48.148;17.128;2023-08-30T11:45:07;99108.19;;;23.54
24740;BMP280;45234;48.148;17.128;2023-08-30T11:47:34;99110.09;;;23.70
24740;BMP280;45234;48.148;17.128;2023-08-30T11:50:02;99109.66;;;23.68
24740;BMP280;45234;48.148;17.128;2023-08-30T11:52:33;99107.63;;;23.65
24740;BMP280;45234;48.148;17.128;2023-08-30T11:55:01;99102.16;;;23.70
24740;BMP280;45234;48.148;17.128;2023-08-30T11:57:35;99090.72;;;23.36
24740;BMP280;45234;48.148;17.128;2023-08-30T12:00:12;99095.53;;;23.11
24740;BMP280;45234;48.148;17.128;2023-08-30T12:02:42;99087.91;;;23.01
24740;BMP280;45234;48.148;17.128;2023-08-30T12:05:13;99090.97;;;22.95
24740;BMP280;45234;48.148;17.128;2023-08-30T12:07:40;99095.94;;;22.74
24740;BMP280;45234;48.148;17.128;2023-08-30T12:10:11;99094.91;;;22.39
24740;BMP280;45234;48.148;17.128;2023-08-30T12:12:44;99096.13;;;22.19
24740;BMP280;45234;48.148;17.128;2023-08-30T12:15:12;99095.38;;;21.91
24740;BMP280;45234;48.148;17.128;2023-08-30T12:17:39;99099.88;;;21.91
24740;BMP280;45234;48.148;17.128;2023-08-30T12:20:14;99093.31;;;21.88
24740;BMP280;45234;48.148;17.128;2023-08-30T12:22:41;99102.00;;;21.89
24740;BMP280;45234;48.148;17.128;2023-08-30T12:25:22;99096.06;;;21.56
24740;BMP280;45234;48.148;17.128;2023-08-30T12:27:50;99099.06;;;21.63
24740;BMP280;45234;48.148;17.128;2023-08-30T12:30:17;99098.88;;;21.73
24740;BMP280;45234;48.148;17.128;2023-08-30T12:32:46;99099.69;;;21.87
24740;BMP280;45234;48.148;17.128;2023-08-30T12:35:14;99107.09;;;21.99
24740;BMP280;45234;48.148;17.128;2023-08-30T12:37:41;99109.13;;;22.02
24740;BMP280;45234;48.148;17.128;2023-08-30T12:40:09;99113.34;;;22.03
24740;BMP280;45234;48.148;17.128;2023-08-30T12:42:37;99113.56;;;22.07
24740;BMP280;45234;48.148;17.128;2023-08-30T12:45:06;99115.59;;;22.10
24740;BMP280;45234;48.148;17.128;2023-08-30T12:47:35;99110.31;;;21.82
24740;BMP280;45234;48.148;17.128;2023-08-30T12:50:03;99111.38;;;21.81
24740;BMP280;45234;48.148;17.128;2023-08-30T12:52:31;99113.56;;;22.07
24740;BMP280;45234;48.148;17.128;2023-08-30T12:54:59;99112.00;;;22.41
24740;BMP280;45234;48.148;17.128;2023-08-30T12:57:26;99104.25;;;22.45
24740;BMP280;45234;48.148;17.128;2023-08-30T12:59:53;99106.03;;;22.50
24740;BMP280;45234;48.148;17.128;2023-08-30T13:02:19;99109.91;;;22.52
24740;BMP280;45234;48.148;17.128;2023-08-30T13:04:48;99111.50;;;22.53
24740;BMP280;45234;48.148;17.128;2023-08-30T13:07:15;99112.31;;;22.40
24740;BMP280;45234;48.148;17.128;2023-08-30T13:09:42;99108.94;;;22.48
24740;BMP280;45234;48.148;17.128;2023-08-30T13:12:09;99111.00;;;22.51
24740;BMP280;45234;48.148;17.128;2023-08-30T13:14:36;99109.91;;;22.52
24740;BMP280;45234;48.148;17.128;2023-08-30T13:17:03;99105.88;;;22.55
24740;BMP280;45234;48.148;17.128;2023-08-30T13:19:30;99108.94;;;22.48
24740;BMP280;45234;48.148;17.128;2023-08-30T13:21:58;99102.97;;;22.56
24740;BMP280;45234;48.148;17.128;2023-08-30T13:24:25;99111.75;;;22.65
24740;BMP280;45234;48.148;17.128;2023-08-30T13:26:55;99105.13;;;22.76
24740;BMP280;45234;48.148;17.128;2023-08-30T13:29:22;99107.78;;;22.76
24740;BMP280;45234;48.148;17.128;2023-08-30T13:31:49;99104.47;;;22.71
24740;BMP280;45234;48.148;17.128;2023-08-30T13:34:16;99106.34;;;22.70
24740;BMP280;45234;48.148;17.128;2023-08-30T13:36:43;99108.00;;;22.66
24740;BMP280;45234;48.148;17.128;2023-08-30T13:39:10;99102.97;;;22.56
24740;BMP280;45234;48.148;17.128;2023-08-30T13:41:37;99099.34;;;22.52
24740;BMP280;45234;48.148;17.128;2023-08-30T13:44:05;99104.19;;;22.36
24740;BMP280;45234;48.148;17.128;2023-08-30T13:46:32;99102.09;;;22.47
24740;BMP280;45234;48.148;17.128;2023-08-30T13:49:00;99092.38;;;22.56
24740;BMP280;45234;48.148;17.128;2023-08-30T13:51:27;99097.34;;;22.71
24740;BMP280;45234;48.148;17.128;2023-08-30T13:53:54;99095.56;;;22.80
24740;BMP280;45234;48.148;17.128;2023-08-30T13:56:21;99102.25;;;22.86
24740;BMP280;45234;48.148;17.128;2023-08-30T13:58:50;99106.19;;;22.98
24740;BMP280;45234;48.148;17.128;2023-08-30T14:01:17;99103.09;;;22.96
24740;BMP280;45234;48.148;17.128;2023-08-30T14:03:44;99103.81;;;22.88
24740;BMP280;45234;48.148;17.128;2023-08-30T14:06:11;99106.03;;;22.94
24740;BMP280;45234;48.148;17.128;2023-08-30T14:08:38;99105.59;;;23.01
24740;BMP280;45234;48.148;17.128;2023-08-30T14:11:06;99108.00;;;22.88